createdAt,value
2023-04-15T00:01:48.018Z,6.40
2023-04-15T00:04:14.679Z,6.42
2023-04-15T00:06:41.702Z,6.44
2023-04-15T00:09:08.744Z,6.48
2023-04-15T00:11:35.567Z,6.48
2023-04-15T00:14:02.094Z,6.49
2023-04-15T00:16:28.679Z,6.49
2023-04-15T00:18:55.142Z,6.48
2023-04-15T00:21:21.861Z,6.47
2023-04-15T00:23:52.628Z,6.46
2023-04-15T00:26:19.751Z,6.46
2023-04-15T00:28:46.952Z,6.45
2023-04-15T00:31:14.166Z,6.45
2023-04-15T00:33:40.690Z,6.44
2023-04-15T00:36:08.590Z,6.44
2023-04-15T00:38:35.061Z,6.43
2023-04-15T00:41:01.826Z,6.44
2023-04-15T00:43:28.280Z,6.43
2023-04-15T00:45:58.963Z,6.43
2023-04-15T00:48:27.246Z,6.44
2023-04-15T00:50:53.689Z,6.46
2023-04-15T00:53:20.424Z,6.46
2023-04-15T00:55:46.858Z,6.47
2023-04-15T00:58:13.384Z,6.48
2023-04-15T01:00:41.015Z,6.50
2023-04-15T01:03:07.836Z,6.53
2023-04-15T01:05:35.159Z,6.55
2023-04-15T01:08:01.781Z,6.55
2023-04-15T01:10:28.587Z,6.57
2023-04-15T01:12:55.089Z,6.56
2023-04-15T01:15:21.968Z,6.57
2023-04-15T01:17:48.954Z,6.56
2023-04-15T02:21:27.723Z,6.96
2023-04-15T02:23:54.314Z,6.94
2023-04-15T02:26:21.085Z,6.93
2023-04-15T02:28:49.092Z,6.92
2023-04-15T02:31:16.110Z,6.91
2023-04-15T02:33:42.564Z,6.90
2023-04-15T02:36:10.181Z,6.87
2023-04-15T02:38:38.203Z,6.88
2023-04-15T02:41:04.885Z,6.88
2023-04-15T02:43:31.649Z,6.88
2023-04-15T02:45:58.238Z,6.87
2023-04-15T02:48:24.929Z,6.89
2023-04-15T02:50:52.024Z,6.89
2023-04-15T02:53:19.922Z,6.90
2023-04-15T02:55:46.547Z,6.91
2023-04-15T02:58:13.217Z,6.91
2023-04-15T03:00:39.754Z,6.92
2023-04-15T03:03:06.515Z,6.93
2023-04-15T03:05:33.383Z,6.93
2023-04-15T03:08:01.190Z,6.94
2023-04-15T03:10:28.529Z,6.94
2023-04-15T03:12:55.037Z,6.94
2023-04-15T03:15:21.588Z,6.93
2023-04-15T03:17:49.607Z,6.93
2023-04-15T03:20:16.968Z,6.92
2023-04-15T03:22:43.625Z,6.90
2023-04-15T03:25:10.186Z,6.86
2023-04-15T03:27:38.066Z,6.80
2023-04-15T03:30:04.996Z,6.77
2023-04-15T03:32:31.789Z,6.71
2023-04-15T03:34:58.400Z,6.67
2023-04-15T03:37:25.584Z,6.64
2023-04-15T03:39:52.219Z,6.61
2023-04-15T03:42:18.798Z,6.57
2023-04-15T03:44:45.496Z,6.55
2023-04-15T03:47:12.017Z,6.52
2023-04-15T03:49:38.738Z,6.50
2023-04-15T03:52:06.156Z,6.47
2023-04-15T03:54:32.720Z,6.46
2023-04-15T03:56:59.504Z,6.44
2023-04-15T03:59:26.366Z,6.45
2023-04-15T04:01:53.226Z,6.46
2023-04-15T04:04:19.971Z,6.47
2023-04-15T04:06:46.986Z,6.47
2023-04-15T04:09:13.563Z,6.44
2023-04-15T04:11:40.500Z,6.43
2023-04-15T04:14:07.283Z,6.41
2023-04-15T04:16:33.916Z,6.42
2023-04-15T04:19:00.791Z,6.41
2023-04-15T04:21:28.135Z,6.40
2023-04-15T04:23:55.045Z,6.38
2023-04-15T04:26:21.558Z,6.36
2023-04-15T04:28:48.242Z,6.31
2023-04-15T04:31:14.876Z,6.25
2023-04-15T04:33:41.778Z,6.21
2023-04-15T04:36:08.283Z,6.18
2023-04-15T04:38:35.329Z,6.15
2023-04-15T04:41:02.004Z,6.13
2023-04-15T04:43:28.810Z,6.09
2023-04-15T04:45:55.791Z,6.09
2023-04-15T04:48:22.892Z,6.08
2023-04-15T04:50:49.612Z,6.07
2023-04-15T04:53:16.261Z,6.07
2023-04-15T04:55:42.711Z,6.08
2023-04-15T04:58:09.200Z,6.09
2023-04-15T05:00:37.488Z,6.09
2023-04-15T05:03:04.634Z,6.07
2023-04-15T05:05:31.421Z,6.08
2023-04-15T05:07:58.271Z,6.09
2023-04-15T05:10:24.785Z,6.10
2023-04-15T05:12:51.990Z,6.10
2023-04-15T05:15:18.957Z,6.11
2023-04-15T05:17:45.595Z,6.12
2023-04-15T05:20:12.790Z,6.13
2023-04-15T05:22:39.478Z,6.12
2023-04-15T05:25:06.676Z,6.11
2023-04-15T05:27:33.243Z,6.11
2023-04-15T05:29:59.808Z,6.10
2023-04-15T05:32:26.498Z,6.12
2023-04-15T05:34:53.125Z,6.14
2023-04-15T05:37:22.545Z,6.16
2023-04-15T05:39:49.159Z,6.16
2023-04-15T05:42:15.652Z,6.18
2023-04-15T05:44:42.709Z,6.17
2023-04-15T05:47:10.372Z,6.17
2023-04-15T05:49:37.055Z,6.18
2023-04-15T05:52:03.727Z,6.16
2023-04-15T05:54:30.393Z,6.16
2023-04-15T05:56:57.794Z,6.16
2023-04-15T05:59:24.401Z,6.14
2023-04-15T06:01:52.328Z,6.14
2023-04-15T06:04:19.140Z,6.16
2023-04-15T06:06:46.372Z,6.19
2023-04-15T06:09:13.081Z,6.22
2023-04-15T06:11:41.372Z,6.25
2023-04-15T06:14:08.333Z,6.25
2023-04-15T06:16:36.690Z,6.24
2023-04-15T06:19:03.809Z,6.25
2023-04-15T06:21:31.446Z,6.25
2023-04-15T06:24:00.400Z,6.26
2023-04-15T06:26:27.224Z,6.27
2023-04-15T06:28:53.959Z,6.28
2023-04-15T06:31:20.802Z,6.28
2023-04-15T06:33:47.288Z,6.27
2023-04-15T06:36:13.872Z,6.28
2023-04-15T06:38:40.753Z,6.31
2023-04-15T06:41:07.858Z,6.33
2023-04-15T06:43:34.783Z,6.36
2023-04-15T06:46:01.247Z,6.38
2023-04-15T06:48:28.163Z,6.40
2023-04-15T06:50:55.101Z,6.43
2023-04-15T06:53:22.187Z,6.45
2023-04-15T06:55:48.648Z,6.48
2023-04-15T06:58:15.189Z,6.51
2023-04-15T07:00:42.072Z,6.54
2023-04-15T07:03:11.267Z,6.58
2023-04-15T07:05:38.443Z,6.61
2023-04-15T07:08:05.628Z,6.63
2023-04-15T07:10:35.550Z,6.67
2023-04-15T07:13:02.749Z,6.71
2023-04-15T07:15:29.220Z,6.72
2023-04-15T07:17:58.677Z,6.75
2023-04-15T07:20:25.894Z,6.78
2023-04-15T07:22:53.143Z,6.81
2023-04-15T07:25:19.953Z,6.83
2023-04-15T07:27:46.546Z,6.86
2023-04-15T07:30:14.299Z,6.88
2023-04-15T07:32:41.986Z,6.91
2023-04-15T07:35:09.903Z,6.98
2023-04-15T07:37:37.263Z,7.01
2023-04-15T07:40:05.242Z,7.05
2023-04-15T07:42:35.644Z,7.07
2023-04-15T07:45:02.357Z,7.07
2023-04-15T07:47:28.914Z,7.12
2023-04-15T07:49:56.202Z,7.14
2023-04-15T07:52:26.047Z,7.13
2023-04-15T07:54:52.911Z,7.15
2023-04-15T07:57:19.743Z,7.16
2023-04-15T07:59:46.468Z,7.16
2023-04-15T08:02:13.696Z,7.16
2023-04-15T08:04:49.240Z,7.15
2023-04-15T08:07:16.105Z,7.16
2023-04-15T08:09:46.427Z,7.15
2023-04-15T08:12:13.600Z,7.15
2023-04-15T08:14:40.721Z,7.18
2023-04-15T08:17:14.510Z,7.21
2023-04-15T08:19:44.335Z,7.22
2023-04-15T08:22:18.480Z,7.22
2023-04-15T08:24:46.608Z,7.24
2023-04-15T08:27:13.652Z,7.27
2023-04-15T08:29:40.889Z,7.31
2023-04-15T08:32:13.372Z,7.39
2023-04-15T08:34:40.132Z,7.41
2023-04-15T08:37:06.991Z,7.43
2023-04-15T08:39:36.584Z,7.43
2023-04-15T08:42:07.098Z,7.43
2023-04-15T08:44:40.166Z,7.44
2023-04-15T08:47:09.465Z,7.44
2023-04-15T08:49:40.891Z,7.46
2023-04-15T08:52:09.074Z,7.49
2023-04-15T08:54:36.717Z,7.52
2023-04-15T08:57:04.514Z,7.56
2023-04-15T08:59:32.061Z,7.60
2023-04-15T09:01:59.578Z,7.65
2023-04-15T09:04:28.102Z,7.71
2023-04-15T09:06:54.528Z,7.77
2023-04-15T09:09:23.939Z,7.83
2023-04-15T09:11:51.686Z,7.86
2023-04-15T09:14:18.340Z,7.90
2023-04-15T09:17:21.736Z,7.92
2023-04-15T09:20:08.850Z,7.95
2023-04-15T09:22:37.368Z,7.96
2023-04-15T09:25:04.473Z,7.92
2023-04-15T09:27:50.978Z,7.91
2023-04-15T09:30:17.825Z,7.90
2023-04-15T09:32:58.027Z,7.88
2023-04-15T09:35:26.363Z,7.90
2023-04-15T09:37:54.077Z,7.94
2023-04-15T09:40:41.190Z,7.96
2023-04-15T09:43:09.885Z,7.99
2023-04-15T09:45:37.194Z,7.98
2023-04-15T09:48:21.756Z,8.00
2023-04-15T09:50:50.331Z,8.03
2023-04-15T09:53:19.510Z,8.07
2023-04-15T09:55:50.314Z,8.15
2023-04-15T09:58:21.664Z,8.21
2023-04-15T10:00:50.633Z,8.26
2023-04-15T10:03:26.479Z,8.29
2023-04-15T10:05:56.110Z,8.32
2023-04-15T10:08:30.890Z,8.35
2023-04-15T10:10:57.917Z,8.37
2023-04-15T10:13:26.846Z,8.41
2023-04-15T10:18:36.632Z,8.46
2023-04-15T10:21:05.851Z,8.50
2023-04-15T10:23:32.766Z,8.52
2023-04-15T10:26:01.264Z,8.53
2023-04-15T10:28:28.573Z,8.53
2023-04-15T10:30:56.386Z,8.54
2023-04-15T10:33:24.522Z,8.59
2023-04-15T10:35:52.984Z,8.64
2023-04-15T10:38:43.385Z,8.65
2023-04-15T10:41:24.962Z,8.71
2023-04-15T10:44:04.941Z,8.79
2023-04-15T10:46:40.587Z,8.80
2023-04-15T10:49:33.487Z,8.80
2023-04-15T10:52:03.596Z,8.86
2023-04-15T10:54:33.827Z,8.91
2023-04-15T10:57:01.603Z,8.98
2023-04-15T10:59:32.020Z,9.06
2023-04-15T11:02:03.983Z,9.12
2023-04-15T11:04:57.705Z,9.22
2023-04-15T11:07:40.499Z,9.32
2023-04-15T11:10:30.912Z,9.35
2023-04-15T11:13:00.080Z,9.32
2023-04-15T11:15:35.104Z,9.33
2023-04-15T11:18:15.396Z,9.42
2023-04-15T11:20:50.736Z,9.50
2023-04-15T11:23:31.427Z,9.52
2023-04-15T11:26:00.016Z,9.53
2023-04-15T11:28:29.039Z,9.58
2023-04-15T11:30:56.349Z,9.60
2023-04-15T11:33:24.721Z,9.61
2023-04-15T11:35:54.229Z,9.61
2023-04-15T11:38:22.417Z,9.59
2023-04-15T11:40:51.305Z,9.60
2023-04-15T11:43:23.024Z,9.61
2023-04-15T11:46:01.255Z,9.60
2023-04-15T11:48:36.546Z,9.58
2023-04-15T11:51:08.356Z,9.61
2023-04-15T11:53:46.045Z,9.64
2023-04-15T11:56:26.608Z,9.67
2023-04-15T11:59:00.792Z,9.71
2023-04-15T12:01:39.880Z,9.71
2023-04-15T12:04:14.342Z,9.74
2023-04-15T12:06:41.251Z,9.77
2023-04-15T12:09:12.595Z,9.78
2023-04-15T12:11:47.598Z,9.76
2023-04-15T12:14:25.489Z,9.79
2023-04-15T12:16:55.064Z,9.84
2023-04-15T12:19:27.548Z,9.81
2023-04-15T12:22:05.582Z,9.81
2023-04-15T12:24:37.094Z,9.84
2023-04-15T12:27:09.199Z,9.84
2023-04-15T12:29:39.017Z,9.86
2023-04-15T12:32:12.488Z,9.86
2023-04-15T12:34:40.555Z,9.82
2023-04-15T12:37:12.034Z,9.78
2023-04-15T12:39:41.510Z,9.73
2023-04-15T12:42:09.704Z,9.71
2023-04-15T12:44:38.190Z,9.73
2023-04-15T12:47:05.497Z,9.74
2023-04-15T12:49:32.831Z,9.76
2023-04-15T12:52:01.779Z,9.83
2023-04-15T12:54:39.319Z,9.92
2023-04-15T12:57:07.473Z,10.00
2023-04-15T12:59:35.689Z,10.04
2023-04-15T13:02:03.316Z,10.10
2023-04-15T13:04:33.068Z,10.16
2023-04-15T13:06:59.639Z,10.13
2023-04-15T13:09:27.093Z,10.12
2023-04-15T13:11:54.520Z,10.16
2023-04-15T13:14:21.360Z,10.19
2023-04-15T13:16:48.251Z,10.36
2023-04-15T13:19:15.776Z,10.55
2023-04-15T13:21:42.934Z,10.77
2023-04-15T13:24:09.838Z,10.97
2023-04-15T13:26:36.874Z,11.16
2023-04-15T13:29:04.127Z,11.28
2023-04-15T13:31:33.838Z,11.38
2023-04-15T13:34:00.908Z,11.57
2023-04-15T13:36:27.863Z,11.79
2023-04-15T13:38:54.849Z,12.07
2023-04-15T13:41:21.914Z,12.35
2023-04-15T13:43:48.496Z,12.54
2023-04-15T13:46:15.702Z,12.68
2023-04-15T13:48:42.789Z,13.06
2023-04-15T13:51:09.549Z,13.74
2023-04-15T13:53:39.189Z,14.24
2023-04-15T13:56:10.269Z,14.64
2023-04-15T13:58:37.764Z,14.75
2023-04-15T14:01:06.823Z,14.78
2023-04-15T14:03:36.202Z,14.85
2023-04-15T14:06:03.325Z,14.83
2023-04-15T14:08:30.076Z,15.15
2023-04-15T14:10:57.662Z,15.36
2023-04-15T14:13:24.589Z,15.75
2023-04-15T14:15:51.635Z,15.99
2023-04-15T14:23:40.602Z,16.44
2023-04-15T14:26:14.641Z,16.45
2023-04-15T14:28:56.594Z,16.50
2023-04-15T14:31:23.354Z,16.37
2023-04-15T14:33:51.323Z,16.21
2023-04-15T14:36:17.871Z,16.10
2023-04-15T14:38:48.529Z,15.88
2023-04-15T14:41:16.422Z,15.69
2023-04-15T14:43:42.841Z,15.56
2023-04-15T14:46:12.857Z,15.45
2023-04-15T14:48:40.202Z,15.27
2023-04-15T14:53:52.499Z,14.88
2023-04-15T14:56:22.348Z,14.81
2023-04-15T14:58:56.264Z,14.65
2023-04-15T15:01:28.415Z,14.52
2023-04-15T15:03:55.852Z,14.48
2023-04-15T15:06:22.749Z,14.37
2023-04-15T15:08:49.645Z,14.35
2023-04-15T15:11:17.325Z,14.37
2023-04-15T15:13:44.043Z,14.32
2023-04-15T15:16:13.098Z,14.27
2023-04-15T15:18:41.318Z,14.23
2023-04-15T15:21:10.058Z,14.17
2023-04-15T15:23:37.183Z,14.10
2023-04-15T15:26:11.021Z,13.97
2023-04-15T15:28:39.024Z,13.90
2023-04-15T15:31:11.275Z,13.89
2023-04-15T15:33:45.295Z,13.89
2023-04-15T15:36:12.329Z,13.91
2023-04-15T15:38:40.593Z,13.84
2023-04-15T15:41:09.956Z,13.82
2023-04-15T15:43:36.940Z,13.91
2023-04-15T15:46:06.901Z,14.01
2023-04-15T15:48:43.853Z,14.17
2023-04-15T15:51:13.121Z,14.94
2023-04-15T15:53:51.919Z,15.83
2023-04-15T15:56:28.245Z,16.93
2023-04-15T15:58:57.610Z,18.07
2023-04-15T16:01:24.298Z,19.05
2023-04-15T16:03:51.515Z,19.75
2023-04-15T16:06:18.482Z,20.03
2023-04-15T16:08:45.278Z,20.03
2023-04-15T16:11:12.562Z,19.64
2023-04-15T16:13:39.308Z,19.02
2023-04-15T16:16:16.187Z,18.44
2023-04-15T16:18:42.698Z,17.80
2023-04-15T16:21:09.467Z,17.29
2023-04-15T16:23:37.074Z,16.76
2023-04-15T16:26:12.494Z,16.23
2023-04-15T16:28:41.995Z,15.74
2023-04-15T16:31:11.164Z,15.34
2023-04-15T16:33:48.737Z,14.99
2023-04-15T16:36:22.394Z,14.66
2023-04-15T16:38:53.210Z,14.42
2023-04-15T16:41:27.245Z,14.17
2023-04-15T16:44:01.356Z,13.92
2023-04-15T16:46:38.140Z,13.63
2023-04-15T16:49:07.301Z,13.45
2023-04-15T16:51:34.158Z,13.33
2023-04-15T16:54:01.913Z,13.25
2023-04-15T16:56:29.269Z,13.15
2023-04-15T16:58:58.433Z,13.06
2023-04-15T17:01:30.973Z,12.96
2023-04-15T17:04:01.551Z,12.91
2023-04-15T17:06:30.879Z,12.88
2023-04-15T17:09:02.834Z,12.88
2023-04-15T17:11:35.190Z,12.87
2023-04-15T17:14:09.042Z,12.89
2023-04-15T17:16:36.194Z,12.94
2023-04-15T17:19:03.863Z,12.96
2023-04-15T17:21:31.522Z,12.94
2023-04-15T17:23:58.420Z,12.91
2023-04-15T17:26:25.221Z,12.91
2023-04-15T17:28:52.012Z,12.91
2023-04-15T17:31:18.860Z,12.91
2023-04-15T17:34:04.627Z,12.90
2023-04-15T17:36:38.942Z,12.85
2023-04-15T17:39:15.894Z,12.84
2023-04-15T17:41:43.148Z,12.81
2023-04-15T17:44:12.529Z,12.76
2023-04-15T17:46:40.446Z,12.75
2023-04-15T17:49:09.512Z,12.72
2023-04-15T17:51:44.405Z,12.66
2023-04-15T17:56:41.687Z,12.57
2023-04-15T17:59:29.871Z,12.54
2023-04-15T18:01:58.777Z,12.52
2023-04-15T18:04:26.929Z,12.48
2023-04-15T18:06:54.251Z,12.46
2023-04-15T18:09:20.922Z,12.41
2023-04-15T18:11:48.644Z,12.34
2023-04-15T18:14:26.621Z,12.29
2023-04-15T18:16:57.761Z,12.25
2023-04-15T18:19:27.715Z,12.22
2023-04-15T18:21:55.123Z,12.17
2023-04-15T18:24:30.701Z,12.15
2023-04-15T18:27:01.070Z,12.13
2023-04-15T18:29:30.288Z,12.10
2023-04-15T18:32:02.325Z,12.07
2023-04-15T18:34:31.695Z,12.03
2023-04-15T18:36:58.781Z,12.00
2023-04-15T18:39:27.204Z,11.97
2023-04-15T18:41:54.347Z,11.97
2023-04-15T18:44:21.303Z,11.95
2023-04-15T18:46:49.087Z,11.94
2023-04-15T18:49:18.519Z,11.91
2023-04-15T18:51:46.403Z,11.91
2023-04-15T18:54:15.849Z,11.88
2023-04-15T18:56:43.064Z,11.84
2023-04-15T18:59:28.860Z,11.81
2023-04-15T19:02:00.026Z,11.76
2023-04-15T19:04:31.350Z,11.73
2023-04-15T19:07:09.525Z,11.69
2023-04-15T19:09:37.127Z,11.66
2023-04-15T19:12:13.522Z,11.65
2023-04-15T19:14:41.871Z,11.62
2023-04-15T19:17:11.076Z,11.60
2023-04-15T19:19:47.726Z,11.57
2023-04-15T19:22:18.036Z,11.55
2023-04-15T19:24:57.984Z,11.52
2023-04-15T19:27:34.477Z,11.51
2023-04-15T19:30:10.536Z,11.50
2023-04-15T19:35:30.672Z,11.44
2023-04-15T19:37:57.682Z,11.41
2023-04-15T19:40:24.532Z,11.39
2023-04-15T19:42:51.028Z,11.36
2023-04-15T19:45:17.825Z,11.34
2023-04-15T19:47:44.574Z,11.33
2023-04-15T19:50:11.901Z,11.32
2023-04-15T19:52:38.436Z,11.31
2023-04-15T19:55:05.693Z,11.30
2023-04-15T19:57:32.436Z,11.26
2023-04-15T19:59:59.298Z,11.24
2023-04-15T20:02:26.053Z,11.24
2023-04-15T20:04:52.649Z,11.23
2023-04-15T20:07:19.324Z,11.20
2023-04-15T20:09:46.133Z,11.20
2023-04-15T20:12:51.426Z,11.17
2023-04-15T20:14:59.610Z,11.17
2023-04-15T20:19:51.495Z,11.15
2023-04-15T20:22:18.224Z,11.14
2023-04-15T20:24:45.631Z,11.14
2023-04-15T20:27:13.228Z,11.12
2023-04-15T20:29:42.315Z,11.10
2023-04-15T20:32:12.083Z,11.08
2023-04-15T20:34:40.553Z,11.05
2023-04-15T20:37:08.672Z,11.01
2023-04-15T20:39:45.697Z,10.98
2023-04-15T20:42:19.397Z,10.94
2023-04-15T20:44:53.118Z,10.95
2023-04-15T20:47:27.387Z,10.92
2023-04-15T20:52:39.370Z,10.84
2023-04-15T20:55:09.887Z,10.81
2023-04-15T20:57:36.662Z,10.81
2023-04-15T21:00:05.734Z,10.78
2023-04-15T21:02:35.159Z,10.74
2023-04-15T21:05:07.169Z,10.70
2023-04-15T21:07:39.227Z,10.67
2023-04-15T21:10:16.127Z,10.64
2023-04-15T21:12:45.212Z,10.64
2023-04-15T21:15:17.353Z,10.64
2023-04-15T21:17:54.277Z,10.61
2023-04-15T21:20:23.594Z,10.58
2023-04-15T21:25:15.314Z,10.54
2023-04-15T21:27:42.198Z,10.50
2023-04-15T21:30:09.518Z,10.47
2023-04-15T21:32:36.348Z,10.44
2023-04-15T21:35:10.176Z,10.43
2023-04-15T21:37:38.220Z,10.39
2023-04-15T21:40:05.634Z,10.37
2023-04-15T21:42:35.463Z,10.34
2023-04-15T21:45:02.233Z,10.32
2023-04-15T21:47:32.623Z,10.29
2023-04-15T21:50:23.998Z,10.26
2023-04-15T21:52:55.906Z,10.22
2023-04-15T21:55:23.194Z,10.19
2023-04-15T21:57:52.446Z,10.16
2023-04-15T22:00:26.513Z,10.16
2023-04-15T22:02:58.679Z,10.16
2023-04-15T22:05:37.220Z,10.11
2023-04-15T22:08:05.197Z,10.07
2023-04-15T22:10:32.060Z,10.04
2023-04-15T22:13:02.328Z,10.01
2023-04-15T22:15:29.083Z,9.98
2023-04-15T22:17:55.583Z,9.95
2023-04-15T22:20:22.138Z,9.92
2023-04-15T22:22:48.812Z,9.90
2023-04-15T22:25:20.967Z,9.87
2023-04-15T22:27:47.426Z,9.86
2023-04-15T22:30:13.885Z,9.86
2023-04-15T22:32:40.523Z,9.86
2023-04-15T22:35:07.473Z,9.84
2023-04-15T22:37:34.205Z,9.82
2023-04-15T22:40:02.002Z,9.79
2023-04-15T22:42:28.695Z,9.76
2023-04-15T22:44:55.434Z,9.73
2023-04-15T22:47:22.110Z,9.71
2023-04-15T22:49:48.889Z,9.69
2023-04-15T22:52:29.323Z,9.65
2023-04-15T22:54:56.923Z,9.63
2023-04-15T22:57:23.645Z,9.61
2023-04-15T22:59:50.371Z,9.57
2023-04-15T23:02:17.211Z,9.55
2023-04-15T23:04:44.034Z,9.54
2023-04-15T23:07:11.173Z,9.51
2023-04-15T23:09:38.517Z,9.49
2023-04-15T23:12:05.808Z,9.48
2023-04-15T23:14:32.246Z,9.48
2023-04-15T23:16:58.849Z,9.46
2023-04-15T23:19:25.459Z,9.41
2023-04-15T23:21:52.742Z,9.39
2023-04-15T23:24:19.376Z,9.39
2023-04-15T23:26:45.992Z,9.38
2023-04-15T23:29:12.688Z,9.37
2023-04-15T23:31:41.416Z,9.36
2023-04-15T23:34:08.037Z,9.33
2023-04-15T23:36:34.547Z,9.32
2023-04-15T23:39:01.487Z,9.28
2023-04-15T23:41:28.178Z,9.27
2023-04-15T23:43:54.711Z,9.23
2023-04-15T23:46:21.405Z,9.24
2023-04-15T23:48:49.045Z,9.24
2023-04-15T23:51:15.954Z,9.24
2023-04-15T23:53:42.628Z,9.24
2023-04-15T23:56:09.051Z,9.22
2023-04-15T23:58:35.737Z,9.21
